Terminal Aerodrome Forecast
Issued by NWS

Home | Current Version | Previous Version | Graphics & Text | Print | Product List | Glossary On
Versions: 1 2 3 4 5 6 7 8 9 10 11 12 13 14 15 16 17 18 19 20 21
000
FTUS43 KGRB 251420 AAA
TAFCWA
TAF AMD
KCWA 251420Z 2514/2612 18013KT 5SM BR BKN006
      TEMPO 2514/2517 3SM RA BR BKN004
     FM251700 24015G25KT P6SM VCSH BKN018
     FM260000 22008KT P6SM VCSH BKN035
     FM260800 20004KT 3SM BR BKN010=

USA.gov is the U.S. government's official web portal to all federal, state and local government web resources and services.